Time,TemperatureF,DewpointF,PressureIn,WindDirection,WindDirectionDegrees,WindSpeedMPH,WindSpeedGustMPH,Humidity,HourlyPrecipIn,Conditions,Clouds,dailyrainin,SoftwareType,DateUTC
2013-10-11 00:03:00,47.8,45.7,29.79,West,267,0.0,0.0,92,0.01,,,0.00,meteobridge,2013-10-10 22:03:00,
2013-10-11 00:09:00,47.7,45.5,29.79,West,267,0.0,0.0,92,0.01,,,0.00,meteobridge,2013-10-10 22:09:00,
2013-10-11 00:15:00,47.7,45.5,29.79,West,267,0.0,0.9,92,0.01,,,0.00,meteobridge,2013-10-10 22:15:00,
2013-10-11 00:20:00,47.7,45.5,29.79,West,267,2.0,2.9,92,0.01,,,0.00,meteobridge,2013-10-10 22:20:00,
2013-10-11 00:25:00,47.5,45.3,29.80,West,267,0.0,2.0,92,0.01,,,0.00,meteobridge,2013-10-10 22:25:00,
2013-10-11 00:30:00,47.3,45.1,29.80,West,267,0.9,2.9,92,0.01,,,0.00,meteobridge,2013-10-10 22:30:00,
2013-10-11 00:35:00,47.1,45.0,29.80,West,267,0.9,2.9,92,0.01,,,0.00,meteobridge,2013-10-10 22:35:00,
2013-10-11 00:40:00,46.9,45.0,29.80,SSE,162,2.9,2.9,93,0.01,,,0.00,meteobridge,2013-10-10 22:40:00,
2013-10-11 00:46:00,46.9,44.8,29.80,East,82,2.0,4.0,92,0.01,,,0.00,meteobridge,2013-10-10 22:46:00,
2013-10-11 00:51:00,46.9,45.0,29.81,ENE,71,2.9,4.9,93,0.01,,,0.00,meteobridge,2013-10-10 22:51:00,
2013-10-11 00:56:00,46.8,44.8,29.81,ENE,74,0.0,4.0,93,0.01,,,0.00,meteobridge,2013-10-10 22:56:00,
2013-10-11 01:01:00,46.8,44.8,29.82,ENE,74,0.9,4.9,93,0.00,,,0.00,meteobridge,2013-10-10 23:01:00,
2013-10-11 01:06:00,46.6,44.6,29.82,East,91,0.9,4.9,93,0.00,,,0.00,meteobridge,2013-10-10 23:06:00,
2013-10-11 01:11:00,46.6,44.6,29.82,East,98,0.9,6.0,93,0.00,,,0.00,meteobridge,2013-10-10 23:11:00,
2013-10-11 01:16:00,46.6,44.6,29.82,ENE,71,0.0,4.9,93,0.00,,,0.00,meteobridge,2013-10-10 23:16:00,
2013-10-11 01:22:00,46.4,44.4,29.82,ENE,72,2.9,4.0,93,0.00,,,0.00,meteobridge,2013-10-10 23:22:00,
2013-10-11 01:27:00,46.2,44.2,29.83,ENE,76,2.9,6.0,93,0.00,,,0.00,meteobridge,2013-10-10 23:27:00,
2013-10-11 01:32:00,46.0,44.1,29.83,ENE,71,4.9,6.0,93,0.00,,,0.00,meteobridge,2013-10-10 23:32:00,
2013-10-11 01:37:00,45.9,43.9,29.83,East,86,4.0,6.9,93,0.00,,,0.00,meteobridge,2013-10-10 23:37:00,
2013-10-11 01:42:00,45.7,43.7,29.83,ESE,115,0.9,6.0,93,0.00,,,0.00,meteobridge,2013-10-10 23:42:00,
2013-10-11 01:47:00,45.7,43.7,29.84,East,82,0.9,8.9,93,0.00,,,0.00,meteobridge,2013-10-10 23:47:00,
2013-10-11 01:53:00,45.5,43.5,29.84,ENE,76,0.0,8.1,93,0.00,,,0.00,meteobridge,2013-10-10 23:53:00,
2013-10-11 01:58:00,45.3,43.3,29.84,East,82,2.9,6.9,93,0.00,,,0.00,meteobridge,2013-10-10 23:58:00,
2013-10-11 02:03:00,45.3,43.3,29.85,East,83,4.9,10.1,93,0.00,,,0.00,meteobridge,2013-10-11 00:03:00,
2013-10-11 02:08:00,45.1,43.2,29.85,East,98,4.9,4.9,93,0.00,,,0.00,meteobridge,2013-10-11 00:08:00,
2013-10-11 02:13:00,45.1,43.2,29.85,East,80,2.0,8.1,93,0.00,,,0.00,meteobridge,2013-10-11 00:13:00,
2013-10-11 02:19:00,45.0,43.3,29.86,ENE,67,4.0,4.9,94,0.00,,,0.00,meteobridge,2013-10-11 00:19:00,
2013-10-11 02:24:00,45.0,43.3,29.86,ESE,122,0.0,8.1,94,0.00,,,0.00,meteobridge,2013-10-11 00:24:00,
2013-10-11 02:29:00,45.0,43.3,29.86,ESE,113,0.9,6.9,94,0.00,,,0.00,meteobridge,2013-10-11 00:29:00,
2013-10-11 02:34:00,44.8,43.2,29.87,East,86,2.9,4.9,94,0.00,,,0.00,meteobridge,2013-10-11 00:34:00,
2013-10-11 02:39:00,44.8,43.2,29.87,ENE,75,2.9,4.9,94,0.00,,,0.00,meteobridge,2013-10-11 00:39:00,
2013-10-11 02:44:00,44.8,43.2,29.88,ESE,109,0.9,6.9,94,0.00,,,0.00,meteobridge,2013-10-11 00:44:00,
2013-10-11 02:49:00,44.8,43.2,29.88,East,96,2.0,6.0,94,0.00,,,0.00,meteobridge,2013-10-11 00:49:00,
2013-10-11 02:54:00,44.8,43.2,29.88,ESE,109,0.9,4.9,94,0.00,,,0.00,meteobridge,2013-10-11 00:54:00,
2013-10-11 02:59:00,45.0,43.3,29.88,SE,133,0.9,4.9,94,0.00,,,0.00,meteobridge,2013-10-11 00:59:00,
2013-10-11 03:05:00,45.0,43.3,29.88,East,91,2.9,4.0,94,0.00,,,0.00,meteobridge,2013-10-11 01:05:00,
2013-10-11 03:10:00,45.0,43.3,29.88,SE,142,6.9,6.9,94,0.00,,,0.00,meteobridge,2013-10-11 01:10:00,
2013-10-11 03:15:00,45.0,43.3,29.89,East,91,0.9,4.9,94,0.00,,,0.00,meteobridge,2013-10-11 01:15:00,
2013-10-11 03:20:00,45.0,43.3,29.89,East,86,2.9,4.0,94,0.00,,,0.00,meteobridge,2013-10-11 01:20:00,
2013-10-11 03:26:00,45.1,43.5,29.89,ENE,74,2.9,6.9,94,0.00,,,0.00,meteobridge,2013-10-11 01:26:00,
2013-10-11 03:32:00,45.1,43.5,29.90,East,90,2.9,6.0,94,0.00,,,0.00,meteobridge,2013-10-11 01:32:00,
2013-10-11 03:37:00,45.1,43.5,29.90,East,94,4.0,8.1,94,0.00,,,0.00,meteobridge,2013-10-11 01:37:00,
2013-10-11 03:42:00,45.1,43.5,29.91,East,80,2.0,6.9,94,0.00,,,0.00,meteobridge,2013-10-11 01:42:00,
2013-10-11 03:47:00,45.1,43.5,29.91,East,91,2.9,6.0,94,0.00,,,0.00,meteobridge,2013-10-11 01:47:00,
2013-10-11 03:52:00,45.1,43.5,29.91,ENE,76,6.0,10.1,94,0.00,,,0.00,meteobridge,2013-10-11 01:52:00,
2013-10-11 03:58:00,45.1,43.5,29.91,East,82,4.0,10.1,94,0.00,,,0.00,meteobridge,2013-10-11 01:58:00,
2013-10-11 04:03:00,45.1,43.5,29.91,East,81,4.0,6.9,94,0.00,,,0.00,meteobridge,2013-10-11 02:03:00,
2013-10-11 04:08:00,45.1,43.5,29.91,East,91,4.0,6.9,94,0.00,,,0.00,meteobridge,2013-10-11 02:08:00,
2013-10-11 04:13:00,45.1,43.5,29.91,East,83,6.0,6.0,94,0.00,,,0.00,meteobridge,2013-10-11 02:13:00,
2013-10-11 04:18:00,45.0,43.3,29.92,East,90,4.0,4.9,94,0.00,,,0.00,meteobridge,2013-10-11 02:18:00,
2013-10-11 04:23:00,45.0,43.3,29.91,East,94,0.0,6.0,94,0.00,,,0.00,meteobridge,2013-10-11 02:23:00,
2013-10-11 04:28:00,44.8,43.2,29.92,ENE,78,2.0,4.0,94,0.00,,,0.00,meteobridge,2013-10-11 02:28:00,
2013-10-11 04:34:00,44.8,43.2,29.92,ENE,78,2.9,4.9,94,0.00,,,0.00,meteobridge,2013-10-11 02:34:00,
2013-10-11 04:39:00,44.6,43.0,29.93,ENE,64,4.9,6.0,94,0.00,,,0.00,meteobridge,2013-10-11 02:39:00,
2013-10-11 04:44:00,44.6,43.0,29.93,East,87,4.9,6.0,94,0.00,,,0.00,meteobridge,2013-10-11 02:44:00,
2013-10-11 04:49:00,44.4,42.8,29.93,East,81,2.0,4.0,94,0.00,,,0.00,meteobridge,2013-10-11 02:49:00,
2013-10-11 04:54:00,44.4,42.8,29.93,ENE,67,4.0,4.9,94,0.00,,,0.00,meteobridge,2013-10-11 02:54:00,
2013-10-11 05:00:00,44.4,42.8,29.93,East,87,2.0,4.0,94,0.00,,,0.00,meteobridge,2013-10-11 03:00:00,
2013-10-11 05:05:00,44.6,43.0,29.93,ENE,60,0.9,6.9,94,0.00,,,0.00,meteobridge,2013-10-11 03:05:00,
2013-10-11 05:10:00,44.6,42.6,29.94,ENE,67,6.0,6.9,93,0.00,,,0.00,meteobridge,2013-10-11 03:10:00,
2013-10-11 05:15:00,44.8,43.2,29.94,East,79,6.0,8.9,94,0.00,,,0.00,meteobridge,2013-10-11 03:15:00,
2013-10-11 05:20:00,45.0,43.0,29.94,ENE,61,4.9,6.9,93,0.00,,,0.00,meteobridge,2013-10-11 03:20:00,
2013-10-11 05:25:00,45.0,43.0,29.95,ENE,72,2.9,4.0,93,0.00,,,0.00,meteobridge,2013-10-11 03:25:00,
2013-10-11 05:30:00,44.8,42.8,29.95,NE,51,4.0,6.0,93,0.00,,,0.00,meteobridge,2013-10-11 03:30:00,
2013-10-11 05:35:00,45.0,43.0,29.95,East,80,4.0,6.0,93,0.00,,,0.00,meteobridge,2013-10-11 03:35:00,
2013-10-11 05:40:00,45.0,42.8,29.96,ENE,59,6.0,6.9,92,0.00,,,0.00,meteobridge,2013-10-11 03:40:00,
2013-10-11 05:45:00,45.0,42.8,29.96,ENE,69,2.9,4.9,92,0.00,,,0.00,meteobridge,2013-10-11 03:45:00,
2013-10-11 05:50:00,45.0,42.8,29.96,ENE,72,2.9,6.9,92,0.00,,,0.00,meteobridge,2013-10-11 03:50:00,
2013-10-11 05:56:00,45.0,42.8,29.96,North,5,2.0,6.0,92,0.00,,,0.00,meteobridge,2013-10-11 03:56:00,
2013-10-11 06:01:00,44.8,42.6,29.96,ENE,65,0.9,8.9,92,0.00,,,0.00,meteobridge,2013-10-11 04:01:00,
2013-10-11 06:02:00,44.8,42.6,29.96,NNW,343,4.0,6.9,92,0.00,,,0.00,meteobridge,2013-10-11 04:02:00,
2013-10-11 06:03:00,44.8,42.6,29.96,ENE,60,2.0,6.9,92,0.00,,,0.00,meteobridge,2013-10-11 04:03:00,
2013-10-11 06:04:00,44.8,42.6,29.96,ENE,61,2.9,4.0,92,0.00,,,0.00,meteobridge,2013-10-11 04:04:00,
2013-10-11 06:06:00,44.8,42.6,29.96,ENE,64,2.9,6.0,92,0.00,,,0.00,meteobridge,2013-10-11 04:06:00,
2013-10-11 06:12:00,44.6,42.4,29.97,ENE,57,2.0,11.0,92,0.00,,,0.00,meteobridge,2013-10-11 04:12:00,
2013-10-11 06:17:00,44.8,42.3,29.96,NE,34,4.9,8.9,91,0.00,,,0.00,meteobridge,2013-10-11 04:17:00,
2013-10-11 06:22:00,44.8,42.6,29.97,NE,51,2.9,6.0,92,0.00,,,0.00,meteobridge,2013-10-11 04:22:00,
2013-10-11 06:27:00,44.8,42.6,29.97,ENE,63,0.9,4.9,92,0.00,,,0.00,meteobridge,2013-10-11 04:27:00,
2013-10-11 06:32:00,44.8,42.6,29.97,NNE,28,0.0,6.0,92,0.00,,,0.00,meteobridge,2013-10-11 04:32:00,
2013-10-11 06:37:00,44.8,42.6,29.97,NNE,29,0.9,4.0,92,0.00,,,0.00,meteobridge,2013-10-11 04:37:00,
2013-10-11 06:43:00,45.0,42.8,29.97,NE,50,0.9,4.9,92,0.00,,,0.00,meteobridge,2013-10-11 04:43:00,
2013-10-11 06:48:00,45.0,42.4,29.97,NE,55,2.0,4.9,91,0.00,,,0.00,meteobridge,2013-10-11 04:48:00,
2013-10-11 06:53:00,45.0,42.4,29.97,NNE,32,0.0,4.0,91,0.00,,,0.00,meteobridge,2013-10-11 04:53:00,
2013-10-11 06:58:00,45.0,42.4,29.97,NNE,30,2.0,4.9,91,0.00,,,0.00,meteobridge,2013-10-11 04:58:00,
2013-10-11 07:03:00,45.1,42.6,29.98,NNE,30,4.9,6.0,91,0.00,,,0.00,meteobridge,2013-10-11 05:03:00,
2013-10-11 07:08:00,45.1,42.6,29.98,North,11,0.0,6.9,91,0.00,,,0.00,meteobridge,2013-10-11 05:08:00,
2013-10-11 07:14:00,45.3,43.2,29.98,NE,51,0.9,6.9,92,0.00,,,0.00,meteobridge,2013-10-11 05:14:00,
2013-10-11 07:19:00,45.3,43.2,29.99,ENE,61,6.9,6.9,92,0.00,,,0.00,meteobridge,2013-10-11 05:19:00,
2013-10-11 07:24:00,45.1,42.6,29.99,NE,37,2.0,4.0,91,0.00,,,0.00,meteobridge,2013-10-11 05:24:00,
2013-10-11 07:29:00,45.1,42.6,29.99,NNE,29,2.9,6.0,91,0.00,,,0.00,meteobridge,2013-10-11 05:29:00,
2013-10-11 07:34:00,45.1,42.6,29.99,NNE,16,4.9,4.9,91,0.00,,,0.00,meteobridge,2013-10-11 05:34:00,
2013-10-11 07:39:00,45.0,42.4,29.99,NNE,24,2.9,6.0,91,0.00,,,0.00,meteobridge,2013-10-11 05:39:00,
2013-10-11 07:45:00,45.0,42.4,29.99,NNE,13,2.0,6.0,91,0.00,,,0.00,meteobridge,2013-10-11 05:45:00,
2013-10-11 07:50:00,45.0,42.4,29.99,NNE,19,2.9,2.9,91,0.00,,,0.00,meteobridge,2013-10-11 05:50:00,
2013-10-11 07:55:00,45.1,42.6,29.99,NNE,19,2.0,2.9,91,0.00,,,0.00,meteobridge,2013-10-11 05:55:00,
2013-10-11 08:00:00,45.1,42.6,30.00,NNE,14,0.0,4.0,91,0.00,,,0.00,meteobridge,2013-10-11 06:00:00,
2013-10-11 08:05:00,45.1,42.6,30.00,NNE,14,4.9,4.9,91,0.00,,,0.00,meteobridge,2013-10-11 06:05:00,
2013-10-11 08:10:00,45.1,42.6,30.00,NNE,15,0.9,2.9,91,0.00,,,0.00,meteobridge,2013-10-11 06:10:00,
2013-10-11 08:15:00,45.1,42.6,30.00,NNE,32,0.9,4.9,91,0.00,,,0.00,meteobridge,2013-10-11 06:15:00,
2013-10-11 08:20:00,45.1,42.6,30.00,NE,35,0.0,4.0,91,0.00,,,0.00,meteobridge,2013-10-11 06:20:00,
2013-10-11 08:26:00,45.3,42.8,30.01,North,0,0.0,2.9,91,0.01,,,0.01,meteobridge,2013-10-11 06:26:00,
2013-10-11 08:31:00,45.5,43.0,30.01,North,9,0.0,4.9,91,0.01,,,0.01,meteobridge,2013-10-11 06:31:00,
2013-10-11 08:36:00,45.7,43.2,30.01,NNE,32,0.0,2.0,91,0.01,,,0.01,meteobridge,2013-10-11 06:36:00,
2013-10-11 08:41:00,45.7,43.2,30.01,NNE,32,0.0,0.0,91,0.01,,,0.01,meteobridge,2013-10-11 06:41:00,
2013-10-11 08:47:00,45.9,43.3,30.01,NNE,32,0.0,0.9,91,0.01,,,0.01,meteobridge,2013-10-11 06:47:00,
2013-10-11 08:52:00,45.9,43.3,30.01,NE,51,4.9,6.0,91,0.01,,,0.01,meteobridge,2013-10-11 06:52:00,
2013-10-11 08:57:00,45.9,43.2,30.02,NE,50,2.9,4.9,90,0.01,,,0.01,meteobridge,2013-10-11 06:57:00,
2013-10-11 09:02:00,46.0,43.3,30.02,NNE,26,2.9,2.9,90,0.01,,,0.01,meteobridge,2013-10-11 07:02:00,
2013-10-11 09:07:00,46.2,43.5,30.02,NNE,25,0.0,0.9,90,0.01,,,0.01,meteobridge,2013-10-11 07:07:00,
2013-10-11 09:12:00,46.4,43.7,30.02,NNE,26,0.0,2.0,90,0.01,,,0.01,meteobridge,2013-10-11 07:12:00,
2013-10-11 09:17:00,46.6,43.9,30.02,NNE,26,0.0,0.0,90,0.01,,,0.01,meteobridge,2013-10-11 07:17:00,
2013-10-11 09:23:00,46.6,43.9,30.02,NNE,25,0.0,0.0,90,0.00,,,0.01,meteobridge,2013-10-11 07:23:00,
2013-10-11 09:28:00,46.6,43.9,30.02,NNE,26,0.9,2.9,90,0.00,,,0.01,meteobridge,2013-10-11 07:28:00,
2013-10-11 09:33:00,46.8,44.1,30.03,NNE,26,0.9,2.0,90,0.00,,,0.01,meteobridge,2013-10-11 07:33:00,
2013-10-11 09:38:00,46.8,44.1,30.03,NNE,22,0.0,2.0,90,0.00,,,0.01,meteobridge,2013-10-11 07:38:00,
2013-10-11 09:43:00,46.8,44.1,30.02,NNE,14,0.0,4.9,90,0.00,,,0.01,meteobridge,2013-10-11 07:43:00,
2013-10-11 09:49:00,46.9,44.2,30.02,NNE,15,0.0,0.0,90,0.00,,,0.01,meteobridge,2013-10-11 07:49:00,
2013-10-11 09:54:00,46.9,44.2,30.02,NNE,15,0.0,2.0,90,0.00,,,0.01,meteobridge,2013-10-11 07:54:00,
2013-10-11 09:59:00,46.9,44.2,30.01,NNE,15,0.0,0.0,90,0.00,,,0.01,meteobridge,2013-10-11 07:59:00,
2013-10-11 10:04:00,47.1,44.4,30.01,NNE,14,0.0,0.0,90,0.00,,,0.01,meteobridge,2013-10-11 08:04:00,
2013-10-11 10:09:00,47.1,44.4,30.01,NNE,14,0.0,0.0,90,0.00,,,0.01,meteobridge,2013-10-11 08:09:00,
2013-10-11 10:15:00,47.3,44.8,30.00,NNE,14,0.0,0.0,91,0.00,,,0.01,meteobridge,2013-10-11 08:15:00,
2013-10-11 10:20:00,47.3,44.8,30.00,NNE,14,0.0,0.9,91,0.00,,,0.01,meteobridge,2013-10-11 08:20:00,
2013-10-11 10:25:00,47.5,45.0,29.99,NNE,15,0.0,0.0,91,0.00,,,0.01,meteobridge,2013-10-11 08:25:00,
2013-10-11 10:30:00,47.5,45.0,29.99,NNE,14,0.0,0.9,91,0.00,,,0.01,meteobridge,2013-10-11 08:30:00,
2013-10-11 10:35:00,47.5,45.0,29.98,NNE,15,0.0,0.0,91,0.00,,,0.01,meteobridge,2013-10-11 08:35:00,
2013-10-11 10:40:00,47.7,45.5,29.98,NNE,14,0.0,2.0,92,0.00,,,0.01,meteobridge,2013-10-11 08:40:00,
2013-10-11 10:46:00,47.7,45.5,29.98,NNE,13,0.9,2.0,92,0.00,,,0.01,meteobridge,2013-10-11 08:46:00,
2013-10-11 10:51:00,47.7,45.5,29.98,North,5,0.0,0.9,92,0.00,,,0.01,meteobridge,2013-10-11 08:51:00,
2013-10-11 10:56:00,47.7,45.5,29.98,North,5,0.9,0.9,92,0.00,,,0.01,meteobridge,2013-10-11 08:56:00,
2013-10-11 11:01:00,47.7,45.5,29.98,North,0,0.0,0.9,92,0.00,,,0.01,meteobridge,2013-10-11 09:01:00,
2013-10-11 11:06:00,47.7,45.5,29.98,North,0,0.0,0.0,92,0.00,,,0.01,meteobridge,2013-10-11 09:06:00,
2013-10-11 11:11:00,47.8,45.7,29.98,North,0,0.0,0.0,92,0.00,,,0.01,meteobridge,2013-10-11 09:11:00,
2013-10-11 11:17:00,47.8,45.7,29.98,North,0,0.9,2.0,92,0.00,,,0.01,meteobridge,2013-10-11 09:17:00,
2013-10-11 11:22:00,47.8,45.9,29.98,North,0,0.0,0.0,93,0.00,,,0.01,meteobridge,2013-10-11 09:22:00,
2013-10-11 11:27:00,47.7,45.7,29.98,North,5,0.0,0.0,93,0.01,,,0.02,meteobridge,2013-10-11 09:27:00,
2013-10-11 11:32:00,47.7,45.7,29.98,NW,304,0.0,2.0,93,0.01,,,0.02,meteobridge,2013-10-11 09:32:00,
2013-10-11 11:37:00,47.5,45.3,29.98,West,276,0.0,0.9,92,0.01,,,0.02,meteobridge,2013-10-11 09:37:00,
2013-10-11 11:43:00,47.3,45.3,29.98,SW,215,0.9,2.9,93,0.01,,,0.02,meteobridge,2013-10-11 09:43:00,
2013-10-11 11:48:00,46.9,45.0,29.97,SW,215,0.0,2.9,93,0.01,,,0.02,meteobridge,2013-10-11 09:48:00,
2013-10-11 11:53:00,46.9,45.0,29.97,SW,215,2.0,2.0,93,0.01,,,0.02,meteobridge,2013-10-11 09:53:00,
2013-10-11 11:58:00,47.1,45.1,29.97,SW,215,2.0,4.0,93,0.01,,,0.02,meteobridge,2013-10-11 09:58:00,
2013-10-11 12:03:00,47.3,45.3,29.98,SW,215,0.0,0.0,93,0.01,,,0.02,meteobridge,2013-10-11 10:03:00,
2013-10-11 12:08:00,47.3,45.3,29.97,SW,216,0.0,0.9,93,0.01,,,0.02,meteobridge,2013-10-11 10:08:00,
2013-10-11 12:14:00,47.1,45.1,29.97,SW,230,2.9,4.9,93,0.01,,,0.02,meteobridge,2013-10-11 10:14:00,
2013-10-11 12:19:00,46.9,45.0,29.96,SW,230,0.9,4.0,93,0.01,,,0.02,meteobridge,2013-10-11 10:19:00,
2013-10-11 12:24:00,46.9,45.0,29.96,West,274,2.0,4.9,93,0.00,,,0.02,meteobridge,2013-10-11 10:24:00,
2013-10-11 12:29:00,46.8,44.8,29.96,West,274,0.0,2.0,93,0.00,,,0.02,meteobridge,2013-10-11 10:29:00,
2013-10-11 12:34:00,46.8,44.8,29.97,West,264,0.0,0.9,93,0.00,,,0.02,meteobridge,2013-10-11 10:34:00,
2013-10-11 12:39:00,46.8,44.8,29.97,West,264,0.0,2.9,93,0.00,,,0.02,meteobridge,2013-10-11 10:39:00,
2013-10-11 12:45:00,46.9,45.0,29.97,WSW,244,2.0,2.0,93,0.00,,,0.02,meteobridge,2013-10-11 10:45:00,
2013-10-11 12:50:00,47.1,45.1,29.97,WSW,244,0.0,4.0,93,0.00,,,0.02,meteobridge,2013-10-11 10:50:00,
2013-10-11 12:55:00,47.1,45.1,29.97,WSW,241,0.0,0.9,93,0.01,,,0.02,meteobridge,2013-10-11 10:55:00,
2013-10-11 13:00:00,47.3,45.3,29.98,WSW,241,0.0,0.0,93,0.01,,,0.02,meteobridge,2013-10-11 11:00:00,
2013-10-11 13:06:00,47.5,45.5,29.98,WSW,241,0.0,0.0,93,0.01,,,0.02,meteobridge,2013-10-11 11:06:00,
2013-10-11 13:11:00,47.1,45.1,29.97,SW,231,4.0,6.0,93,0.01,,,0.02,meteobridge,2013-10-11 11:11:00,
2013-10-11 13:16:00,47.1,45.1,29.97,SW,229,0.0,0.9,93,0.01,,,0.02,meteobridge,2013-10-11 11:16:00,
2013-10-11 13:21:00,46.9,45.0,29.97,SSW,196,2.9,6.0,93,0.01,,,0.02,meteobridge,2013-10-11 11:21:00,
2013-10-11 13:27:00,46.8,44.8,29.97,SSW,193,2.9,4.9,93,0.01,,,0.02,meteobridge,2013-10-11 11:27:00,
2013-10-11 13:32:00,46.8,44.8,29.97,SSW,198,0.0,2.9,93,0.01,,,0.02,meteobridge,2013-10-11 11:32:00,
2013-10-11 13:37:00,46.8,44.8,29.98,SSW,205,0.0,4.0,93,0.01,,,0.02,meteobridge,2013-10-11 11:37:00,
2013-10-11 13:42:00,46.6,44.6,29.98,SW,219,0.9,6.0,93,0.01,,,0.02,meteobridge,2013-10-11 11:42:00,
2013-10-11 13:47:00,46.4,44.4,29.97,SW,227,4.9,8.1,93,0.01,,,0.02,meteobridge,2013-10-11 11:47:00,
2013-10-11 13:53:00,46.4,44.4,29.98,SSW,211,0.0,6.0,93,0.01,,,0.02,meteobridge,2013-10-11 11:53:00,
2013-10-11 13:58:00,46.4,44.4,29.98,SSW,213,0.0,4.9,93,0.00,,,0.02,meteobridge,2013-10-11 11:58:00,
2013-10-11 14:03:00,46.6,44.6,29.98,SSW,206,0.9,2.0,93,0.00,,,0.02,meteobridge,2013-10-11 12:03:00,
2013-10-11 14:08:00,46.6,44.6,29.98,SSW,206,0.0,2.0,93,0.00,,,0.02,meteobridge,2013-10-11 12:08:00,
2013-10-11 14:14:00,46.8,44.8,29.98,SSW,203,2.0,2.9,93,0.09,,,0.11,meteobridge,2013-10-11 12:14:00,
2013-10-11 14:19:00,46.8,44.8,29.98,SSW,203,0.0,0.9,93,0.09,,,0.11,meteobridge,2013-10-11 12:19:00,
2013-10-11 14:24:00,46.8,44.8,29.98,SSW,203,0.9,2.9,93,0.09,,,0.12,meteobridge,2013-10-11 12:24:00,
2013-10-11 14:29:00,46.8,44.8,29.98,SSW,203,0.0,0.9,93,0.09,,,0.12,meteobridge,2013-10-11 12:29:00,
2013-10-11 14:34:00,46.9,45.3,29.98,SSW,202,2.0,2.0,94,0.10,,,0.13,meteobridge,2013-10-11 12:34:00,
2013-10-11 14:40:00,46.8,44.8,29.98,SSW,202,2.0,2.0,93,0.10,,,0.13,meteobridge,2013-10-11 12:40:00,
2013-10-11 14:45:00,46.9,45.0,29.98,SSW,202,2.0,2.0,93,0.10,,,0.13,meteobridge,2013-10-11 12:45:00,
2013-10-11 14:50:00,47.1,45.1,29.98,SSW,202,4.0,4.0,93,0.10,,,0.13,meteobridge,2013-10-11 12:50:00,
2013-10-11 14:56:00,47.1,45.1,29.98,SSW,202,0.0,0.0,93,0.11,,,0.13,meteobridge,2013-10-11 12:56:00,
2013-10-11 15:01:00,46.9,45.0,29.98,SSW,205,0.0,4.9,93,0.11,,,0.13,meteobridge,2013-10-11 13:01:00,
2013-10-11 15:06:00,47.1,45.1,29.98,SSW,205,0.9,2.9,93,0.12,,,0.14,meteobridge,2013-10-11 13:06:00,
2013-10-11 15:11:00,47.1,45.1,29.98,SW,226,2.9,4.9,93,0.04,,,0.14,meteobridge,2013-10-11 13:11:00,
2013-10-11 15:16:00,46.9,45.0,29.98,SW,229,2.0,4.9,93,0.03,,,0.14,meteobridge,2013-10-11 13:16:00,
2013-10-11 15:21:00,46.9,45.0,29.98,SW,228,4.0,4.0,93,0.03,,,0.15,meteobridge,2013-10-11 13:21:00,
2013-10-11 15:27:00,46.8,44.8,29.98,SW,229,4.0,4.9,93,0.03,,,0.15,meteobridge,2013-10-11 13:27:00,
2013-10-11 15:32:00,46.9,45.0,29.98,SW,229,2.0,4.0,93,0.04,,,0.16,meteobridge,2013-10-11 13:32:00,
2013-10-11 15:37:00,46.9,45.0,29.98,SW,229,0.0,0.0,93,0.03,,,0.16,meteobridge,2013-10-11 13:37:00,
2013-10-11 15:42:00,46.9,45.0,29.98,SW,229,0.0,2.0,93,0.03,,,0.16,meteobridge,2013-10-11 13:42:00,
2013-10-11 15:47:00,46.9,45.0,29.98,SW,232,0.0,2.0,93,0.03,,,0.16,meteobridge,2013-10-11 13:47:00,
2013-10-11 15:52:00,46.9,45.0,29.98,SW,228,2.9,4.9,93,0.04,,,0.17,meteobridge,2013-10-11 13:52:00,
2013-10-11 15:57:00,46.8,44.8,29.98,SW,228,0.9,4.0,93,0.03,,,0.17,meteobridge,2013-10-11 13:57:00,
2013-10-11 16:03:00,46.8,44.8,29.98,WSW,242,0.9,4.9,93,0.03,,,0.17,meteobridge,2013-10-11 14:03:00,
2013-10-11 16:09:00,46.8,44.8,29.98,WSW,242,0.9,2.9,93,0.02,,,0.17,meteobridge,2013-10-11 14:09:00,
2013-10-11 16:14:00,46.8,44.8,29.98,WSW,242,0.9,2.9,93,0.02,,,0.17,meteobridge,2013-10-11 14:14:00,
2013-10-11 16:19:00,46.9,45.0,29.98,WSW,242,0.9,0.9,93,0.02,,,0.17,meteobridge,2013-10-11 14:19:00,
2013-10-11 16:24:00,46.9,45.0,29.98,WSW,242,0.0,2.9,93,0.02,,,0.17,meteobridge,2013-10-11 14:24:00,
2013-10-11 16:30:00,46.9,45.0,29.97,WSW,242,2.0,2.0,93,0.01,,,0.17,meteobridge,2013-10-11 14:30:00,
2013-10-11 16:35:00,46.9,45.0,29.97,WSW,242,0.0,0.0,93,0.01,,,0.17,meteobridge,2013-10-11 14:35:00,
2013-10-11 16:40:00,46.9,45.0,29.97,WSW,242,0.0,0.0,93,0.02,,,0.17,meteobridge,2013-10-11 14:40:00,
2013-10-11 16:45:00,47.1,45.1,29.98,WSW,242,0.0,0.9,93,0.02,,,0.17,meteobridge,2013-10-11 14:45:00,
2013-10-11 16:50:00,47.1,45.1,29.97,WSW,242,0.0,0.0,93,0.01,,,0.17,meteobridge,2013-10-11 14:50:00,
2013-10-11 16:55:00,47.3,45.3,29.97,WSW,243,2.0,2.9,93,0.01,,,0.17,meteobridge,2013-10-11 14:55:00,
2013-10-11 17:00:00,47.1,45.1,29.97,WSW,242,0.0,0.9,93,0.01,,,0.17,meteobridge,2013-10-11 15:00:00,
2013-10-11 17:06:00,47.5,45.5,29.97,West,269,0.0,0.0,93,0.01,,,0.17,meteobridge,2013-10-11 15:06:00,
2013-10-11 17:11:00,47.3,45.3,29.97,West,268,0.0,2.0,93,0.01,,,0.17,meteobridge,2013-10-11 15:11:00,
2013-10-11 17:16:00,47.3,45.3,29.97,NW,309,0.0,0.9,93,0.01,,,0.17,meteobridge,2013-10-11 15:16:00,
2013-10-11 17:21:00,47.3,45.3,29.97,NW,309,0.9,2.9,93,0.01,,,0.17,meteobridge,2013-10-11 15:21:00,
2013-10-11 17:26:00,47.3,45.3,29.97,NW,309,0.9,2.0,93,0.01,,,0.17,meteobridge,2013-10-11 15:26:00,
2013-10-11 17:32:00,47.5,45.5,29.96,NW,309,0.9,2.0,93,0.01,,,0.17,meteobridge,2013-10-11 15:32:00,
2013-10-11 17:37:00,47.5,45.5,29.96,NW,309,0.0,4.0,93,0.00,,,0.17,meteobridge,2013-10-11 15:37:00,
2013-10-11 17:42:00,47.3,45.3,29.96,NW,309,0.9,0.9,93,0.00,,,0.17,meteobridge,2013-10-11 15:42:00,
2013-10-11 17:47:00,47.5,45.5,29.97,NW,309,0.0,0.9,93,0.00,,,0.17,meteobridge,2013-10-11 15:47:00,
2013-10-11 17:52:00,47.5,45.5,29.97,NW,309,0.0,0.0,93,0.00,,,0.17,meteobridge,2013-10-11 15:52:00,
2013-10-11 17:57:00,47.3,45.3,29.97,WNW,302,0.0,2.9,93,0.00,,,0.17,meteobridge,2013-10-11 15:57:00,
2013-10-11 18:03:00,47.3,45.7,29.97,WNW,302,0.0,0.0,94,0.00,,,0.17,meteobridge,2013-10-11 16:03:00,
2013-10-11 18:08:00,47.5,45.9,29.97,WNW,302,0.0,2.0,94,0.01,,,0.18,meteobridge,2013-10-11 16:08:00,
2013-10-11 18:13:00,47.3,45.7,29.97,WSW,253,0.0,2.9,94,0.02,,,0.19,meteobridge,2013-10-11 16:13:00,
2013-10-11 18:18:00,47.3,46.8,29.97,WSW,238,2.9,2.9,98,0.02,,,0.19,meteobridge,2013-10-11 16:18:00,
2013-10-11 18:24:00,47.1,45.1,29.97,WSW,244,0.0,2.0,93,0.02,,,0.20,meteobridge,2013-10-11 16:24:00,
2013-10-11 18:29:00,46.9,45.3,29.97,West,277,0.0,2.9,94,0.02,,,0.20,meteobridge,2013-10-11 16:29:00,
2013-10-11 18:34:00,46.9,45.3,29.97,West,277,0.0,2.9,94,0.02,,,0.20,meteobridge,2013-10-11 16:34:00,
2013-10-11 18:39:00,46.9,45.3,29.97,West,277,0.0,0.0,94,0.02,,,0.20,meteobridge,2013-10-11 16:39:00,
2013-10-11 18:44:00,47.1,45.5,29.97,West,277,0.0,2.9,94,0.03,,,0.20,meteobridge,2013-10-11 16:44:00,
2013-10-11 18:50:00,47.1,45.5,29.97,West,277,0.0,0.0,94,0.04,,,0.21,meteobridge,2013-10-11 16:50:00,
2013-10-11 18:55:00,47.1,45.5,29.97,West,277,2.0,2.0,94,0.04,,,0.21,meteobridge,2013-10-11 16:55:00,
2013-10-11 19:00:00,47.1,45.5,29.97,West,276,0.0,0.0,94,0.05,,,0.22,meteobridge,2013-10-11 17:00:00,
2013-10-11 19:05:00,47.3,45.7,29.98,West,277,0.0,0.0,94,0.05,,,0.23,meteobridge,2013-10-11 17:05:00,
2013-10-11 19:11:00,47.3,45.7,29.98,West,276,0.0,0.0,94,0.05,,,0.23,meteobridge,2013-10-11 17:11:00,
2013-10-11 19:16:00,47.3,45.7,29.98,West,277,0.0,0.0,94,0.05,,,0.24,meteobridge,2013-10-11 17:16:00,
2013-10-11 19:21:00,47.5,45.9,29.98,West,277,0.0,0.0,94,0.05,,,0.24,meteobridge,2013-10-11 17:21:00,
2013-10-11 19:26:00,47.5,45.9,29.98,West,277,0.0,0.0,94,0.06,,,0.26,meteobridge,2013-10-11 17:26:00,
2013-10-11 19:31:00,47.5,45.9,29.99,West,277,0.0,0.0,94,0.07,,,0.27,meteobridge,2013-10-11 17:31:00,
2013-10-11 19:36:00,47.7,46.0,29.99,West,276,0.0,2.0,94,0.08,,,0.28,meteobridge,2013-10-11 17:36:00,
2013-10-11 19:42:00,47.7,46.0,29.99,South,176,0.0,2.0,94,0.08,,,0.28,meteobridge,2013-10-11 17:42:00,
2013-10-11 19:47:00,47.7,46.0,29.99,South,174,0.9,2.0,94,0.08,,,0.28,meteobridge,2013-10-11 17:47:00,
2013-10-11 19:52:00,47.5,45.9,29.99,South,173,0.0,2.0,94,0.08,,,0.29,meteobridge,2013-10-11 17:52:00,
2013-10-11 19:57:00,47.5,45.9,29.98,South,174,0.9,2.9,94,0.08,,,0.29,meteobridge,2013-10-11 17:57:00,
2013-10-11 20:02:00,47.3,45.7,29.98,South,173,0.9,2.0,94,0.07,,,0.29,meteobridge,2013-10-11 18:02:00,
2013-10-11 20:08:00,47.5,45.9,29.98,South,173,0.0,0.9,94,0.07,,,0.30,meteobridge,2013-10-11 18:08:00,
2013-10-11 20:13:00,47.3,45.7,29.98,South,173,4.0,4.0,94,0.07,,,0.31,meteobridge,2013-10-11 18:13:00,
2013-10-11 20:18:00,47.1,45.5,29.98,South,173,0.0,0.9,94,0.07,,,0.31,meteobridge,2013-10-11 18:18:00,
2013-10-11 20:24:00,47.1,45.5,29.98,South,178,0.0,4.0,94,0.07,,,0.32,meteobridge,2013-10-11 18:24:00,
2013-10-11 20:29:00,47.1,45.5,29.97,South,182,2.0,2.9,94,0.06,,,0.32,meteobridge,2013-10-11 18:29:00,
2013-10-11 20:35:00,47.1,45.7,29.97,South,182,0.9,2.9,95,0.06,,,0.33,meteobridge,2013-10-11 18:35:00,
2013-10-11 20:40:00,47.1,45.7,29.97,South,182,2.0,2.9,95,0.06,,,0.34,meteobridge,2013-10-11 18:40:00,
2013-10-11 20:46:00,47.1,45.7,29.97,South,182,0.9,2.0,95,0.06,,,0.34,meteobridge,2013-10-11 18:46:00,
2013-10-11 20:51:00,47.1,45.7,29.97,South,182,0.0,0.0,95,0.05,,,0.34,meteobridge,2013-10-11 18:51:00,
2013-10-11 20:56:00,47.1,45.7,29.97,South,182,0.0,2.0,95,0.06,,,0.35,meteobridge,2013-10-11 18:56:00,
2013-10-11 21:01:00,47.1,45.7,29.97,South,182,0.0,0.0,95,0.06,,,0.35,meteobridge,2013-10-11 19:01:00,
2013-10-11 21:06:00,47.1,45.7,29.97,South,182,0.0,2.0,95,0.05,,,0.35,meteobridge,2013-10-11 19:06:00,
2013-10-11 21:12:00,47.1,45.7,29.97,South,182,0.0,2.0,95,0.05,,,0.35,meteobridge,2013-10-11 19:12:00,
2013-10-11 21:17:00,47.3,45.9,29.97,South,182,0.0,0.0,95,0.05,,,0.36,meteobridge,2013-10-11 19:17:00,
2013-10-11 21:23:00,47.5,46.0,29.97,South,182,0.9,2.0,95,0.04,,,0.36,meteobridge,2013-10-11 19:23:00,
2013-10-11 21:29:00,47.5,46.0,29.98,South,182,0.0,0.0,95,0.05,,,0.37,meteobridge,2013-10-11 19:29:00,
2013-10-11 21:34:00,47.5,46.0,29.97,South,182,0.0,0.0,95,0.06,,,0.39,meteobridge,2013-10-11 19:34:00,
2013-10-11 21:39:00,47.5,46.0,29.97,South,182,0.0,0.0,95,0.06,,,0.39,meteobridge,2013-10-11 19:39:00,
2013-10-11 21:44:00,47.5,46.0,29.97,South,182,0.0,2.9,95,0.07,,,0.41,meteobridge,2013-10-11 19:44:00,
2013-10-11 21:49:00,47.5,46.0,29.97,South,182,0.0,0.0,95,0.07,,,0.41,meteobridge,2013-10-11 19:49:00,
2013-10-11 21:54:00,47.5,46.0,29.97,South,182,0.0,2.0,95,0.08,,,0.43,meteobridge,2013-10-11 19:54:00,
2013-10-11 22:00:00,47.5,46.0,29.97,South,182,0.0,0.0,95,0.09,,,0.43,meteobridge,2013-10-11 20:00:00,
2013-10-11 22:05:00,47.5,46.0,29.98,South,182,0.0,0.9,95,0.09,,,0.44,meteobridge,2013-10-11 20:05:00,
2013-10-11 22:10:00,47.5,46.0,29.98,South,182,0.0,0.9,95,0.09,,,0.44,meteobridge,2013-10-11 20:10:00,
2013-10-11 22:15:00,47.5,46.0,29.97,South,182,0.0,2.9,95,0.09,,,0.45,meteobridge,2013-10-11 20:15:00,
2013-10-11 22:20:00,47.5,46.0,29.97,South,182,0.0,2.0,95,0.09,,,0.45,meteobridge,2013-10-11 20:20:00,
2013-10-11 22:25:00,47.5,46.0,29.97,South,182,0.0,0.0,95,0.08,,,0.45,meteobridge,2013-10-11 20:25:00,
2013-10-11 22:31:00,47.5,46.0,29.97,South,182,0.0,2.9,95,0.08,,,0.46,meteobridge,2013-10-11 20:31:00,
2013-10-11 22:36:00,47.5,46.0,29.96,South,182,0.0,0.9,95,0.07,,,0.46,meteobridge,2013-10-11 20:36:00,
2013-10-11 22:41:00,47.5,46.0,29.96,South,182,0.0,0.0,95,0.06,,,0.46,meteobridge,2013-10-11 20:41:00,
2013-10-11 22:46:00,47.5,46.0,29.96,South,182,0.0,0.9,95,0.07,,,0.48,meteobridge,2013-10-11 20:46:00,
2013-10-11 22:51:00,47.5,46.0,29.96,South,182,0.0,0.0,95,0.07,,,0.49,meteobridge,2013-10-11 20:51:00,
2013-10-11 22:57:00,47.7,46.2,29.96,South,182,2.0,2.0,95,0.06,,,0.49,meteobridge,2013-10-11 20:57:00,
2013-10-11 23:02:00,47.5,46.0,29.96,South,182,0.0,0.0,95,0.05,,,0.49,meteobridge,2013-10-11 21:02:00,
2013-10-11 23:08:00,47.5,46.0,29.96,South,182,0.0,0.0,95,0.06,,,0.50,meteobridge,2013-10-11 21:08:00,
2013-10-11 23:13:00,47.7,46.2,29.97,South,180,0.0,0.9,95,0.05,,,0.50,meteobridge,2013-10-11 21:13:00,
2013-10-11 23:18:00,47.7,46.2,29.96,South,180,0.0,2.0,95,0.05,,,0.50,meteobridge,2013-10-11 21:18:00,
2013-10-11 23:24:00,47.5,46.0,29.96,South,180,0.0,0.0,95,0.05,,,0.50,meteobridge,2013-10-11 21:24:00,
2013-10-11 23:29:00,47.7,46.2,29.97,South,180,0.0,2.0,95,0.04,,,0.50,meteobridge,2013-10-11 21:29:00,
2013-10-11 23:34:00,47.5,46.0,29.96,South,180,0.0,2.0,95,0.04,,,0.50,meteobridge,2013-10-11 21:34:00,
2013-10-11 23:39:00,47.5,46.0,29.96,South,180,2.0,2.9,95,0.03,,,0.50,meteobridge,2013-10-11 21:39:00,
2013-10-11 23:44:00,47.7,46.2,29.96,South,180,0.0,0.9,95,0.03,,,0.50,meteobridge,2013-10-11 21:44:00,
2013-10-11 23:50:00,47.7,46.2,29.97,SSE,160,0.0,0.0,95,0.02,,,0.50,meteobridge,2013-10-11 21:50:00,
2013-10-11 23:55:00,47.7,46.2,29.97,SSE,162,0.0,2.0,95,0.02,,,0.50,meteobridge,2013-10-11 21:55:00,